Time;durP1;ratioP1;P1;durP2;ratioP2;P2;SDS_P1;SDS_P2;PMS_P1;PMS_P2;Temp;Humidity;BMP_temperature;BMP_pressure;BME280_temperature;BME280_humidity;BME280_pressure;Samples;Min_cycle;Max_cycle;Signal;HPM_P1;HPM_P2
2023/04/03 00:00:35;;;;;;;1.50;1.23;;;;;;;2.99;71.11;103107.81;6187759;23;20490;-76
2023/04/03 00:03:02;;;;;;;1.30;1.17;;;;;;;2.97;71.01;103116.03;6188548;23;20029;-78
2023/04/03 00:05:29;;;;;;;2.08;1.27;;;;;;;2.94;71.09;103119.31;6187930;23;20018;-79
2023/04/03 00:07:55;;;;;;;2.20;1.15;;;;;;;2.91;71.42;103124.47;6188420;23;20017;-79
2023/04/03 00:10:22;;;;;;;1.48;1.38;;;;;;;2.88;71.30;103123.25;6188357;23;20018;-77
2023/04/03 00:12:48;;;;;;;1.48;1.27;;;;;;;2.87;71.49;103121.72;6188640;23;20439;-79
2023/04/03 00:15:15;;;;;;;1.40;1.30;;;;;;;2.84;71.48;103121.59;6188012;23;20021;-79
2023/04/03 00:17:41;;;;;;;4.53;1.45;;;;;;;2.81;71.74;103117.75;6188318;23;20013;-79
2023/04/03 00:20:08;;;;;;;1.33;1.20;;;;;;;2.79;71.72;103133.13;6189193;23;20030;-78
2023/04/03 00:22:35;;;;;;;2.97;1.27;;;;;;;2.76;71.88;103128.53;6189467;23;20509;-78
2023/04/03 00:25:02;;;;;;;1.30;1.20;;;;;;;2.75;72.09;103120.97;6189657;23;20439;-79
2023/04/03 00:27:28;;;;;;;1.45;1.35;;;;;;;2.73;72.05;103131.03;6188460;23;20064;-78
2023/04/03 00:29:55;;;;;;;1.40;1.30;;;;;;;2.72;72.31;103124.25;6189786;23;20018;-79
2023/04/03 00:32:21;;;;;;;2.67;1.45;;;;;;;2.70;72.34;103123.81;6188948;23;20439;-79
2023/04/03 00:34:48;;;;;;;1.50;1.40;;;;;;;2.66;72.43;103127.09;6188014;23;20022;-78
2023/04/03 00:37:15;;;;;;;2.25;1.30;;;;;;;2.64;72.79;103131.91;6188830;23;20088;-78
2023/04/03 00:39:41;;;;;;;2.00;1.35;;;;;;;2.62;72.57;103131.47;6189452;23;20013;-77
2023/04/03 00:42:08;;;;;;;1.25;1.10;;;;;;;2.61;72.77;103126.53;6187241;23;20462;-79
2023/04/03 00:44:34;;;;;;;1.77;1.08;;;;;;;2.59;73.01;103131.34;6189159;23;20017;-76
2023/04/03 00:47:05;;;;;;;1.67;1.40;;;;;;;2.57;73.23;103133.53;6189568;23;20098;-78
2023/04/03 00:49:32;;;;;;;2.78;1.58;;;;;;;2.56;73.02;103132.75;6188820;23;20017;-78
2023/04/03 00:51:59;;;;;;;1.15;1.10;;;;;;;2.54;73.25;103142.84;6189498;23;20040;-78
2023/04/03 00:54:26;;;;;;;1.83;1.40;;;;;;;2.52;73.49;103146.88;6188734;23;20013;-78
2023/04/03 00:56:56;;;;;;;6.32;1.20;;;;;;;2.50;73.73;103143.81;6189450;23;20018;-78
2023/04/03 00:59:34;;;;;;;2.55;1.67;;;;;;;2.46;73.64;103140.28;6188917;23;20013;-78
2023/04/03 01:02:00;;;;;;;1.98;1.30;;;;;;;2.44;74.06;103145.88;6189512;23;20068;-78
2023/04/03 01:04:33;;;;;;;1.77;1.50;;;;;;;2.43;74.13;103146.19;6188534;23;20018;-78
2023/04/03 01:07:33;;;;;;;1.80;1.58;;;;;;;2.41;74.35;103149.16;6187126;23;20035;-78
2023/04/03 01:10:03;;;;;;;1.30;1.20;;;;;;;2.39;74.50;103150.59;6189667;23;20055;-78
2023/04/03 01:12:32;;;;;;;2.70;1.15;;;;;;;2.37;74.63;103142.25;6189155;23;20028;-78
2023/04/03 01:15:22;;;;;;;1.40;1.25;;;;;;;2.36;74.69;103149.38;6189243;23;20512;-78
2023/04/03 01:17:56;;;;;;;1.38;1.27;;;;;;;2.32;75.15;103146.63;6163139;23;20022;-78
2023/04/03 01:20:31;;;;;;;1.67;1.58;;;;;;;2.28;75.29;103148.38;6187258;23;20080;-78
2023/04/03 01:23:20;;;;;;;1.40;1.30;;;;;;;2.27;75.39;103151.31;6187319;23;20053;-76
2023/04/03 01:25:50;;;;;;;1.27;1.17;;;;;;;2.24;75.53;103150.09;6186646;23;20104;-76
2023/04/03 01:28:22;;;;;;;2.20;1.77;;;;;;;2.21;75.91;103158.63;6188718;23;20017;-76
2023/04/03 01:31:00;;;;;;;1.83;1.67;;;;;;;2.20;75.41;103154.47;6190666;23;20018;-77
2023/04/03 01:33:28;;;;;;;3.53;1.45;;;;;;;2.18;76.18;103148.75;6186622;23;20117;-76
2023/04/03 01:35:55;;;;;;;1.88;1.15;;;;;;;2.18;76.26;103150.63;6189325;23;20471;-76
2023/04/03 01:38:22;;;;;;;2.03;1.58;;;;;;;2.13;76.46;103143.69;6186936;23;20024;-76
2023/04/03 01:40:49;;;;;;;2.53;1.85;;;;;;;2.12;76.76;103152.66;6161692;23;20355;-76
2023/04/03 01:43:16;;;;;;;2.10;1.70;;;;;;;2.10;76.86;103152.22;6187016;23;20025;-78
2023/04/03 01:45:43;;;;;;;1.92;1.38;;;;;;;2.09;77.07;103144.66;6188518;23;20017;-78
2023/04/03 01:48:10;;;;;;;2.80;1.50;;;;;;;2.06;77.22;103140.81;6186924;23;20440;-78
2023/04/03 01:50:36;;;;;;;4.18;1.60;;;;;;;2.06;77.52;103147.94;6187243;23;20017;-78
2023/04/03 01:53:04;;;;;;;2.83;1.45;;;;;;;2.03;77.61;103146.72;6162807;23;20045;-78
2023/04/03 01:55:31;;;;;;;1.52;1.40;;;;;;;2.01;77.75;103146.28;6188081;23;20014;-78
2023/04/03 01:57:58;;;;;;;2.60;1.73;;;;;;;1.97;77.92;103140.91;6189403;23;20018;-78
2023/04/03 02:00:24;;;;;;;1.50;1.40;;;;;;;1.96;78.04;103147.25;6186945;23;20013;-76
2023/04/03 02:02:51;;;;;;;2.72;1.60;;;;;;;1.94;78.27;103146.03;6188243;23;20028;-78
2023/04/03 02:05:18;;;;;;;1.60;1.50;;;;;;;1.93;78.56;103153.16;6186472;23;20017;-78
2023/04/03 02:07:45;;;;;;;2.13;1.40;;;;;;;1.90;78.50;103153.78;6189465;23;20020;-78
2023/04/03 02:10:12;;;;;;;5.38;1.60;;;;;;;1.87;78.77;103158.91;6188265;23;20014;-78
2023/04/03 02:12:39;;;;;;;1.48;1.38;;;;;;;1.83;79.31;103168.53;6189043;23;20022;-78
2023/04/03 02:15:06;;;;;;;2.20;2.00;;;;;;;1.80;79.41;103163.91;6187372;23;20080;-78
2023/04/03 02:17:32;;;;;;;3.20;1.77;;;;;;;1.79;79.46;103165.00;6186809;23;20017;-78
2023/04/03 02:19:59;;;;;;;4.30;1.80;;;;;;;1.78;79.52;103172.09;6189380;23;20014;-76
2023/04/03 02:22:25;;;;;;;2.30;1.40;;;;;;;1.75;79.59;103166.72;6188488;23;20028;-76
2023/04/03 02:24:52;;;;;;;1.30;1.23;;;;;;;1.73;79.79;103167.03;6186812;23;20024;-76
2023/04/03 02:27:19;;;;;;;2.45;1.38;;;;;;;1.72;80.04;103168.13;6186733;23;20028;-76
2023/04/03 02:29:47;;;;;;;2.60;1.70;;;;;;;1.70;80.32;103169.53;6187148;23;20046;-76
2023/04/03 02:32:14;;;;;;;1.88;1.70;;;;;;;1.66;80.49;103162.28;6186550;23;20113;-76
2023/04/03 02:34:42;;;;;;;1.52;1.42;;;;;;;1.64;80.59;103166.31;6187226;23;20022;-75
2023/04/03 02:37:11;;;;;;;2.45;1.83;;;;;;;1.61;80.89;103165.09;6186516;23;20021;-76
2023/04/03 02:39:37;;;;;;;2.10;1.67;;;;;;;1.58;80.84;103165.75;6188145;23;20489;-76
2023/04/03 02:42:04;;;;;;;1.50;1.40;;;;;;;1.56;81.04;103169.78;6186661;23;20431;-76
2023/04/03 02:44:31;;;;;;;6.13;1.80;;;;;;;1.52;81.29;103169.66;6186355;23;20030;-77
2023/04/03 02:46:57;;;;;;;2.50;1.52;;;;;;;1.49;81.44;103170.28;6188963;23;20376;-77
2023/04/03 02:49:24;;;;;;;4.78;1.58;;;;;;;1.50;81.99;103181.56;6186516;23;20025;-76
2023/04/03 02:51:51;;;;;;;1.75;1.65;;;;;;;1.47;81.63;103177.72;6188103;23;20021;-76
2023/04/03 02:54:17;;;;;;;2.00;1.80;;;;;;;1.44;81.51;103180.19;6187613;23;20020;-76
2023/04/03 02:56:49;;;;;;;1.92;1.73;;;;;;;1.42;81.99;103179.75;6187269;23;20041;-76
2023/04/03 02:59:16;;;;;;;1.88;1.77;;;;;;;1.41;81.98;103186.06;6188112;23;20013;-76
2023/04/03 03:01:43;;;;;;;1.70;1.60;;;;;;;1.39;82.07;103185.63;6187091;23;20443;-77
2023/04/03 03:04:09;;;;;;;3.70;1.52;;;;;;;1.36;82.44;103186.25;6186495;23;20029;-78
2023/04/03 03:06:36;;;;;;;3.25;1.83;;;;;;;1.32;82.76;103194.75;6188640;23;20014;-76
2023/04/03 03:09:03;;;;;;;1.67;1.58;;;;;;;1.30;82.77;103198.78;6186751;23;20017;-76
2023/04/03 03:11:30;;;;;;;2.97;1.85;;;;;;;1.27;82.71;103202.81;6188344;23;20435;-78
2023/04/03 03:13:57;;;;;;;1.85;1.75;;;;;;;1.24;83.17;103200.03;6187085;23;20029;-78
2023/04/03 03:16:24;;;;;;;4.38;1.52;;;;;;;1.22;83.44;103202.22;6186738;23;20013;-78
2023/04/03 03:18:51;;;;;;;4.28;1.67;;;;;;;1.20;83.34;103209.66;6187176;23;20022;-78
2023/04/03 03:21:17;;;;;;;3.83;1.85;;;;;;;1.16;83.89;103204.25;6186356;23;20021;-78
2023/04/03 03:23:44;;;;;;;2.30;2.08;;;;;;;1.14;84.16;103203.03;6186501;23;20028;-78
2023/04/03 03:26:11;;;;;;;4.05;2.08;;;;;;;1.09;84.50;103203.22;6186688;23;20017;-78
2023/04/03 03:28:39;;;;;;;4.10;1.63;;;;;;;1.06;84.68;103207.22;6188835;23;20017;-78
2023/04/03 03:31:07;;;;;;;4.40;2.17;;;;;;;1.03;84.38;103199.97;6186479;23;20093;-77
2023/04/03 03:33:36;;;;;;;2.63;1.90;;;;;;;0.97;84.65;103202.00;6188449;23;20481;-76
2023/04/03 03:36:02;;;;;;;2.63;1.80;;;;;;;0.93;84.76;103208.94;6188215;23;20020;-76
2023/04/03 03:38:29;;;;;;;2.88;1.65;;;;;;;0.90;85.11;103206.19;6186438;23;20033;-76
2023/04/03 03:40:57;;;;;;;3.50;2.00;;;;;;;0.88;85.38;103209.13;6186711;23;20452;-76
2023/04/03 03:43:24;;;;;;;2.72;1.80;;;;;;;0.85;85.74;103209.75;6188270;23;20084;-76
2023/04/03 03:45:53;;;;;;;3.55;2.20;;;;;;;0.83;85.87;103206.66;6187039;23;20106;-76
2023/04/03 03:48:22;;;;;;;3.25;1.55;;;;;;;0.79;86.22;103203.16;6210535;23;20458;-77
2023/04/03 03:50:49;;;;;;;3.08;1.95;;;;;;;0.79;86.38;103205.00;6186145;23;20017;-77
2023/04/03 03:53:17;;;;;;;2.45;1.65;;;;;;;0.74;86.04;103207.78;6185865;23;20049;-77
2023/04/03 03:55:44;;;;;;;3.10;1.98;;;;;;;0.70;86.54;103212.09;6162535;23;20486;-78
2023/04/03 03:58:11;;;;;;;3.78;1.92;;;;;;;0.69;86.72;103200.84;6188395;23;20013;-77
2023/04/03 04:00:38;;;;;;;1.92;1.77;;;;;;;0.68;86.82;103217.66;6186589;23;20018;-77
2023/04/03 04:03:04;;;;;;;2.67;1.60;;;;;;;0.66;87.30;103220.59;6186904;23;20077;-78
2023/04/03 04:05:31;;;;;;;2.63;1.80;;;;;;;0.63;87.28;103221.22;6185620;23;20328;-77
2023/04/03 04:07:59;;;;;;;1.73;1.63;;;;;;;0.61;87.36;103212.88;6186581;23;20017;-77
2023/04/03 04:10:26;;;;;;;2.55;1.65;;;;;;;0.60;87.49;103219.22;6188769;23;20406;-76
2023/04/03 04:12:54;;;;;;;2.53;1.70;;;;;;;0.58;87.53;103218.75;6186469;23;20481;-76
2023/04/03 04:15:26;;;;;;;2.00;1.80;;;;;;;0.55;87.75;103214.13;6188041;23;20088;-76
2023/04/03 04:17:54;;;;;;;2.42;1.80;;;;;;;0.52;87.77;103222.59;6186665;23;20017;-76
2023/04/03 04:20:22;;;;;;;2.85;1.92;;;;;;;0.50;88.08;103221.38;6185071;23;20022;-76
2023/04/03 04:22:48;;;;;;;2.60;2.05;;;;;;;0.46;88.34;103225.69;6188646;23;20024;-76
2023/04/03 04:25:16;;;;;;;2.40;2.00;;;;;;;0.45;88.40;103224.16;6161235;23;20521;-76
2023/04/03 04:27:43;;;;;;;3.78;1.60;;;;;;;0.42;88.44;103224.75;6186834;23;20017;-76
2023/04/03 04:30:13;;;;;;;2.10;1.90;;;;;;;0.41;88.85;103231.06;6186183;23;20025;-76
2023/04/03 04:32:40;;;;;;;1.83;1.63;;;;;;;0.40;89.06;103225.06;6188535;23;20014;-76
2023/04/03 04:35:07;;;;;;;2.08;1.85;;;;;;;0.39;89.10;103233.28;6161236;23;20362;-76
2023/04/03 04:37:38;;;;;;;4.95;2.13;;;;;;;0.38;89.15;103232.50;6186123;23;20018;-78
2023/04/03 04:40:06;;;;;;;5.50;2.15;;;;;;;0.36;89.11;103226.78;6186251;23;20116;-78
2023/04/03 04:42:33;;;;;;;5.13;1.92;;;;;;;0.36;89.63;103232.03;6186831;23;20478;-78
2023/04/03 04:45:00;;;;;;;5.38;2.20;;;;;;;0.37;89.91;103233.56;6186441;23;20113;-78
2023/04/03 04:47:28;;;;;;;4.75;2.08;;;;;;;0.36;89.86;103232.03;6185524;23;20104;-78
2023/04/03 04:49:55;;;;;;;5.22;2.10;;;;;;;0.37;90.15;103235.44;6185334;23;20084;-78
2023/04/03 04:52:22;;;;;;;3.15;2.17;;;;;;;0.36;90.10;103239.91;6185505;23;20018;-78
2023/04/03 04:54:49;;;;;;;3.85;1.95;;;;;;;0.36;90.62;103239.91;6186487;23;20069;-78
2023/04/03 04:57:15;;;;;;;2.70;1.90;;;;;;;0.37;90.27;103236.19;6185723;23;20026;-77
2023/04/03 04:59:42;;;;;;;5.40;2.10;;;;;;;0.38;90.55;103236.97;6185904;23;20490;-78
2023/04/03 05:02:09;;;;;;;2.58;2.08;;;;;;;0.39;90.73;103233.28;6187343;23;20455;-79
2023/04/03 05:04:37;;;;;;;3.47;1.60;;;;;;;0.39;90.63;103234.03;6186571;23;20081;-79
2023/04/03 05:07:10;;;;;;;4.90;2.03;;;;;;;0.39;90.90;103241.13;6187456;23;20044;-78
2023/04/03 05:09:37;;;;;;;2.90;1.90;;;;;;;0.41;90.91;103242.34;6188067;23;20431;-78
2023/04/03 05:12:04;;;;;;;3.75;2.08;;;;;;;0.42;90.89;103245.72;6187818;23;20021;-78
2023/04/03 05:14:37;;;;;;;6.78;2.20;;;;;;;0.43;90.92;103244.66;6187777;23;20017;-78
2023/04/03 05:17:06;;;;;;;2.58;2.25;;;;;;;0.44;90.83;103246.19;6187625;23;20411;-79
2023/04/03 05:19:36;;;;;;;7.32;2.58;;;;;;;0.44;91.01;103246.19;6188632;23;20060;-79
2023/04/03 05:22:05;;;;;;;7.25;2.30;;;;;;;0.46;91.12;103252.66;6187428;23;20104;-80
2023/04/03 05:24:31;;;;;;;3.75;2.28;;;;;;;0.46;90.81;103247.41;6187987;23;20036;-78
2023/04/03 05:26:59;;;;;;;2.83;2.40;;;;;;;0.47;91.09;103254.22;6188880;23;20022;-78
2023/04/03 05:29:26;;;;;;;3.67;2.20;;;;;;;0.48;91.16;103253.13;6187772;23;20026;-79
2023/04/03 05:31:54;;;;;;;4.15;1.95;;;;;;;0.49;90.93;103259.91;6187852;23;20077;-80
2023/04/03 05:34:21;;;;;;;3.13;2.35;;;;;;;0.50;90.79;103255.44;6213006;23;20018;-79
2023/04/03 05:36:51;;;;;;;3.50;2.30;;;;;;;0.52;90.81;103255.91;6213283;23;20017;-78
2023/04/03 05:39:17;;;;;;;4.65;2.03;;;;;;;0.53;90.76;103265.31;6187818;23;20080;-79
2023/04/03 05:41:46;;;;;;;3.05;1.92;;;;;;;0.55;90.45;103260.53;6187811;23;20407;-78
2023/04/03 05:44:13;;;;;;;4.63;2.25;;;;;;;0.56;90.08;103267.31;6187972;23;20499;-79
2023/04/03 05:46:42;;;;;;;4.25;2.65;;;;;;;0.57;89.99;103272.25;6187500;23;20052;-81
2023/04/03 05:49:10;;;;;;;2.40;1.90;;;;;;;0.60;89.94;103265.63;6187706;23;20029;-79
2023/04/03 05:51:38;;;;;;;3.90;2.05;;;;;;;0.63;89.70;103275.50;6163480;23;20105;-78
2023/04/03 05:54:28;;;;;;;3.17;1.98;;;;;;;0.66;89.54;103278.25;6166782;23;20454;-79
2023/04/03 05:57:08;;;;;;;2.35;2.03;;;;;;;0.69;89.58;103274.25;6187582;23;20024;-79
2023/04/03 05:59:35;;;;;;;3.97;1.90;;;;;;;0.72;88.99;103284.13;6188019;23;20032;-80
2023/04/03 06:02:03;;;;;;;8.55;2.63;;;;;;;0.76;89.04;103285.06;6189118;23;20332;-81
2023/04/03 06:04:29;;;;;;;3.55;2.28;;;;;;;0.80;89.31;103280.72;6187676;23;20546;-79
2023/04/03 06:06:57;;;;;;;6.10;2.38;;;;;;;0.94;89.44;103289.19;6189538;23;20042;-78
2023/04/03 06:09:28;;;;;;;6.78;2.00;;;;;;;2.91;88.57;103288.38;6189379;23;20026;-78
2023/04/03 06:11:55;;;;;;;5.20;2.35;;;;;;;5.73;76.97;103291.72;6189113;23;20123;-79
2023/04/03 06:14:23;;;;;;;4.50;2.00;;;;;;;7.57;68.54;103297.84;6187810;23;20025;-77
2023/04/03 06:16:50;;;;;;;3.53;1.92;;;;;;;8.55;63.25;103293.41;6187345;23;20355;-78
2023/04/03 06:19:16;;;;;;;5.72;1.90;;;;;;;8.66;59.11;103294.31;6187392;23;20027;-80
2023/04/03 06:21:50;;;;;;;2.28;1.90;;;;;;;8.70;58.27;103297.75;6213486;23;20020;-78
2023/04/03 06:24:17;;;;;;;3.92;2.03;;;;;;;8.48;58.08;103296.00;6187123;23;20024;-78
2023/04/03 06:26:44;;;;;;;3.08;1.90;;;;;;;8.95;57.55;103298.00;6189855;23;20013;-79
2023/04/03 06:29:11;;;;;;;2.80;2.05;;;;;;;9.09;56.82;103308.00;6189468;23;20041;-79
2023/04/03 06:31:37;;;;;;;2.60;1.88;;;;;;;8.37;57.28;103308.41;6187349;23;20076;-80
2023/04/03 06:34:05;;;;;;;8.85;2.28;;;;;;;7.77;59.10;103303.03;6190301;23;20017;-80
2023/04/03 06:36:34;;;;;;;2.42;1.65;;;;;;;7.45;59.70;103306.00;6190507;23;20440;-81
2023/04/03 06:39:02;;;;;;;2.70;2.05;;;;;;;7.25;60.33;103312.47;6189751;23;20053;-79
2023/04/03 06:41:29;;;;;;;2.42;1.95;;;;;;;6.75;61.02;103310.88;6188972;23;20403;-77
2023/04/03 06:43:57;;;;;;;3.75;2.28;;;;;;;6.30;62.72;103305.09;6189651;23;20037;-78
2023/04/03 06:46:25;;;;;;;3.42;1.98;;;;;;;5.65;64.05;103315.34;6188684;23;20494;-78
2023/04/03 06:48:53;;;;;;;8.25;2.08;;;;;;;5.12;66.23;103315.97;6189396;23;20022;-77
2023/04/03 06:51:22;;;;;;;2.28;1.90;;;;;;;4.91;67.64;103318.81;6189547;23;20088;-78
2023/04/03 06:53:50;;;;;;;4.78;2.05;;;;;;;4.92;68.00;103323.75;6188196;23;20014;-77
2023/04/03 06:56:18;;;;;;;5.72;1.88;;;;;;;4.86;68.44;103329.59;6188937;23;20347;-78
2023/04/03 06:58:45;;;;;;;7.60;2.00;;;;;;;4.82;68.30;103336.66;6189888;23;20100;-77
2023/04/03 07:01:14;;;;;;;4.78;2.08;;;;;;;4.76;69.04;103327.47;6188693;23;20017;-78
2023/04/03 07:03:41;;;;;;;4.30;2.15;;;;;;;4.81;69.51;103341.16;6189430;23;20017;-77
2023/04/03 07:06:11;;;;;;;14.52;2.28;;;;;;;4.83;69.60;103343.47;6189410;23;20455;-77
2023/04/03 07:08:39;;;;;;;2.88;2.00;;;;;;;4.74;68.86;103335.72;6189448;23;20056;-77
2023/04/03 07:11:06;;;;;;;3.90;1.75;;;;;;;4.64;69.18;103344.88;6188041;23;20481;-77
2023/04/03 07:13:33;;;;;;;4.55;2.20;;;;;;;4.67;69.09;103344.22;6187238;23;20013;-78
2023/04/03 07:16:00;;;;;;;10.57;2.13;;;;;;;4.66;69.52;103341.91;6189472;23;20080;-78
2023/04/03 07:18:26;;;;;;;2.45;1.80;;;;;;;4.67;69.21;103341.56;6189408;23;20447;-77
2023/04/03 07:20:53;;;;;;;6.80;2.00;;;;;;;4.71;69.37;103341.69;6189825;23;20021;-77
2023/04/03 07:23:19;;;;;;;3.97;1.98;;;;;;;4.82;68.65;103347.22;6189373;23;20403;-77
2023/04/03 07:25:48;;;;;;;5.00;2.00;;;;;;;4.82;68.70;103349.84;6190194;23;20022;-78
2023/04/03 07:28:16;;;;;;;6.53;1.88;;;;;;;4.82;69.12;103350.63;6188558;23;20018;-79
2023/04/03 07:30:47;;;;;;;7.78;2.05;;;;;;;4.95;68.22;103360.03;6189389;23;20017;-77
2023/04/03 07:33:15;;;;;;;4.03;2.15;;;;;;;4.99;68.31;103352.97;6187660;23;20013;-78
2023/04/03 07:35:42;;;;;;;2.63;1.80;;;;;;;5.04;67.76;103351.97;6189482;23;20018;-79
2023/04/03 07:38:10;;;;;;;9.82;1.98;;;;;;;5.09;67.61;103345.69;6187180;23;20030;-76
2023/04/03 07:40:37;;;;;;;5.88;1.88;;;;;;;5.17;67.03;103360.63;6189818;23;20414;-78
2023/04/03 07:43:05;;;;;;;4.20;1.70;;;;;;;5.17;66.46;103363.25;6187048;23;20053;-79
2023/04/03 07:45:34;;;;;;;2.10;1.60;;;;;;;5.33;66.66;103362.16;6188774;23;20422;-78
2023/04/03 07:48:01;;;;;;;4.65;2.13;;;;;;;5.50;66.01;103360.31;6189202;23;20022;-78
2023/04/03 07:50:30;;;;;;;2.53;1.50;;;;;;;5.46;65.17;103372.66;6189055;23;20024;-81
2023/04/03 07:52:57;;;;;;;3.17;1.90;;;;;;;5.45;65.07;103360.56;6189323;23;20017;-77
2023/04/03 07:55:25;;;;;;;2.13;1.50;;;;;;;5.56;64.27;103366.88;6188972;23;20042;-76
2023/04/03 07:57:51;;;;;;;6.18;2.13;;;;;;;5.56;64.15;103370.28;6189734;23;20018;-79
2023/04/03 08:00:19;;;;;;;2.72;1.75;;;;;;;5.71;64.17;103371.38;6188712;23;20088;-79
2023/04/03 08:02:50;;;;;;;5.07;1.77;;;;;;;5.83;63.54;103373.94;6189460;23;20018;-79
2023/04/03 08:05:21;;;;;;;1.67;1.58;;;;;;;5.84;62.75;103372.06;6188716;23;20017;-78
2023/04/03 08:07:48;;;;;;;4.95;2.13;;;;;;;5.98;63.01;103367.91;6189388;23;20018;-79
2023/04/03 08:10:15;;;;;;;4.25;2.03;;;;;;;6.14;62.93;103365.19;6188121;23;20017;-78
2023/04/03 08:12:41;;;;;;;3.33;1.90;;;;;;;6.16;61.57;103370.91;6188629;23;20010;-79
2023/04/03 08:15:09;;;;;;;1.88;1.75;;;;;;;6.20;60.71;103377.06;6189004;23;20049;-79
2023/04/03 08:17:36;;;;;;;2.83;1.60;;;;;;;6.30;59.95;103375.75;6189425;23;20028;-78
2023/04/03 08:20:05;;;;;;;1.75;1.58;;;;;;;6.25;59.44;103379.44;6189171;23;20105;-78
2023/04/03 08:22:32;;;;;;;3.10;1.90;;;;;;;6.34;59.43;103382.66;6188676;23;20017;-79
2023/04/03 08:24:59;;;;;;;4.93;1.92;;;;;;;6.50;58.41;103382.59;6189079;23;20021;-79
2023/04/03 08:27:26;;;;;;;4.95;1.30;;;;;;;6.57;56.62;103390.69;6188083;23;20021;-79
2023/04/03 08:29:54;;;;;;;3.60;1.52;;;;;;;6.72;56.32;103390.97;6188937;23;20018;-79
2023/04/03 08:32:21;;;;;;;1.80;1.40;;;;;;;6.75;55.83;103390.28;6186631;23;20351;-80
2023/04/03 08:34:47;;;;;;;3.33;1.58;;;;;;;6.83;55.24;103389.28;6188783;23;20018;-80
2023/04/03 08:37:16;;;;;;;3.30;1.40;;;;;;;7.05;54.83;103396.53;6187725;23;20021;-80
2023/04/03 08:39:43;;;;;;;5.90;1.60;;;;;;;7.11;53.45;103386.41;6188504;23;20396;-79
2023/04/03 08:42:35;;;;;;;2.72;1.20;;;;;;;7.18;53.76;103405.09;6189119;23;20018;-79
2023/04/03 08:45:27;;;;;;;1.30;1.00;;;;;;;7.28;51.99;103396.56;6190115;23;20029;-79
2023/04/03 08:48:03;;;;;;;3.53;1.30;;;;;;;7.34;51.17;103405.75;6189949;23;20367;-78
2023/04/03 08:50:35;;;;;;;1.27;0.98;;;;;;;7.44;49.40;103399.09;6213340;23;20018;-79
2023/04/03 08:53:06;;;;;;;1.52;1.02;;;;;;;7.51;48.61;103397.34;6190440;23;20014;-79
2023/04/03 08:55:48;;;;;;;1.83;1.10;;;;;;;7.72;50.32;103398.81;6189311;23;20017;-79
2023/04/03 08:58:19;;;;;;;1.40;1.00;;;;;;;7.74;46.00;103399.97;6189982;23;20025;-79
2023/04/03 09:01:13;;;;;;;1.70;0.82;;;;;;;7.85;47.21;103394.84;6190523;23;20039;-80
2023/04/03 09:03:40;;;;;;;2.00;1.05;;;;;;;7.84;46.15;103393.31;6188710;23;20018;-79
2023/04/03 09:06:15;;;;;;;1.77;0.82;;;;;;;7.95;45.35;103388.94;6188261;23;20072;-79
2023/04/03 09:09:12;;;;;;;1.38;0.88;;;;;;;8.06;46.86;103384.53;6190299;23;20166;-80
2023/04/03 09:12:11;;;;;;;0.80;0.80;;;;;;;8.01;46.32;103387.50;6189715;23;20024;-79
2023/04/03 09:14:45;;;;;;;0.80;0.80;;;;;;;7.97;43.56;103389.34;6188403;23;20479;-79
2023/04/03 09:17:29;;;;;;;0.82;0.80;;;;;;;8.16;44.13;103391.88;6189713;23;20464;-79
2023/04/03 09:20:10;;;;;;;1.17;0.65;;;;;;;8.19;42.56;103385.09;6190417;23;20040;-79
2023/04/03 09:22:43;;;;;;;2.30;0.68;;;;;;;8.23;40.54;103386.69;6190354;23;20033;-81
2023/04/03 09:25:25;;;;;;;0.65;0.65;;;;;;;8.19;42.16;103395.72;6191097;23;20025;-82
2023/04/03 09:27:52;;;;;;;14.15;8.75;;;;;;;8.22;39.10;103398.41;6189539;23;20442;-80
2023/04/03 09:30:23;;;;;;;0.70;0.70;;;;;;;8.31;38.57;103398.94;6189244;23;20017;-81
2023/04/03 09:32:52;;;;;;;1.10;0.63;;;;;;;8.36;39.20;103392.56;6187825;23;20017;-80
2023/04/03 09:35:33;;;;;;;1.45;0.60;;;;;;;8.44;39.97;103385.44;6189570;23;20024;-81
2023/04/03 09:38:12;;;;;;;1.58;0.70;;;;;;;8.48;37.60;103384.38;6189751;23;20020;-80
2023/04/03 09:40:46;;;;;;;0.95;0.70;;;;;;;8.50;36.45;103370.72;6189503;23;20088;-81
2023/04/03 09:43:30;;;;;;;1.80;0.82;;;;;;;8.49;39.09;103374.50;6191688;23;20014;-81
2023/04/03 09:46:18;;;;;;;3.17;0.90;;;;;;;8.62;39.61;103391.75;6189740;23;20029;-81
2023/04/03 09:48:52;;;;;;;2.20;0.75;;;;;;;8.88;38.96;103369.66;6189959;23;20347;-81
2023/04/03 09:51:34;;;;;;;3.15;0.80;;;;;;;8.78;36.64;103370.31;6189973;23;20443;-80
2023/04/03 09:54:26;;;;;;;0.70;0.60;;;;;;;8.77;39.24;103374.84;6189530;23;20022;-80
2023/04/03 09:56:55;;;;;;;0.68;0.68;;;;;;;8.75;36.96;103369.16;6192909;23;20430;-82
2023/04/03 09:59:22;;;;;;;0.95;0.50;;;;;;;8.76;35.73;103359.28;6189725;23;20366;-79
2023/04/03 10:02:23;;;;;;;2.05;0.50;;;;;;;8.81;38.67;103354.38;6189778;23;20017;-80
2023/04/03 10:04:49;;;;;;;0.57;0.50;;;;;;;8.94;35.20;103357.56;6189999;23;20404;-79
2023/04/03 10:07:38;;;;;;;0.68;0.60;;;;;;;8.95;35.48;103351.13;6189168;23;20018;-80
2023/04/03 10:10:18;;;;;;;0.98;0.60;;;;;;;9.04;35.63;103348.94;6189404;23;20044;-82
2023/04/03 10:12:44;;;;;;;0.50;0.45;;;;;;;9.10;34.13;103333.44;6189210;23;20020;-82
2023/04/03 10:15:18;;;;;;;0.50;0.50;;;;;;;9.08;35.24;103341.78;6191362;23;20038;-81
2023/04/03 10:17:56;;;;;;;0.65;0.60;;;;;;;9.05;34.78;103361.09;6189873;23;20022;-81
2023/04/03 10:20:31;;;;;;;0.88;0.85;;;;;;;8.94;33.25;103347.69;6189175;23;20130;-81
2023/04/03 10:23:17;;;;;;;0.95;0.50;;;;;;;8.98;35.72;103339.78;6189010;23;20443;-81
2023/04/03 10:26:04;;;;;;;0.43;0.43;;;;;;;9.01;34.21;103318.56;6189336;23;20451;-80
2023/04/03 10:28:30;;;;;;;0.40;0.40;;;;;;;9.02;33.78;103324.63;6189566;23;20010;-78
2023/04/03 10:31:11;;;;;;;0.88;0.88;;;;;;;9.20;34.98;103330.84;6193644;23;20017;-79
2023/04/03 10:33:52;;;;;;;0.63;0.60;;;;;;;9.29;34.20;103317.25;6189748;23;20018;-80
2023/04/03 10:36:37;;;;;;;0.40;0.40;;;;;;;9.33;34.21;103318.06;6189783;23;20024;-78
2023/04/03 10:39:38;;;;;;;1.17;0.47;;;;;;;9.09;35.15;103310.66;6190005;23;20344;-77
2023/04/03 10:42:40;;;;;;;1.20;0.57;;;;;;;9.07;34.79;103305.69;6189395;23;20018;-78
2023/04/03 10:45:32;;;;;;;0.50;0.50;;;;;;;9.14;36.09;103297.78;6165565;23;20089;-78
2023/04/03 10:48:25;;;;;;;0.80;0.40;;;;;;;9.05;35.47;103293.91;6189940;23;20462;-77
2023/04/03 10:51:00;;;;;;;0.40;0.40;;;;;;;9.11;34.46;103298.53;6188890;23;20018;-78
2023/04/03 10:53:42;;;;;;;0.50;0.50;;;;;;;9.09;34.89;103297.34;6189581;23;20591;-79
2023/04/03 10:56:21;;;;;;;1.38;0.60;;;;;;;9.03;33.89;103300.34;6189408;23;20026;-77
2023/04/03 10:59:17;;;;;;;0.80;0.60;;;;;;;9.11;34.21;103303.06;6188158;23;20020;-79
2023/04/03 11:01:49;;;;;;;0.68;0.68;;;;;;;9.08;35.18;103295.84;6079731;23;20018;-81
2023/04/03 11:04:17;;;;;;;0.60;0.60;;;;;;;9.27;35.48;103293.69;6127435;23;20027;-79
2023/04/03 11:06:56;;;;;;;0.80;0.80;;;;;;;9.43;36.03;103290.78;6126390;23;20064;-79
2023/04/03 11:09:27;;;;;;;0.50;0.50;;;;;;;9.46;34.94;103282.06;6127225;23;20018;-78
2023/04/03 11:12:06;;;;;;;0.47;0.47;;;;;;;9.41;35.99;103290.41;6127202;23;20454;-78
2023/04/03 11:14:35;;;;;;;0.85;0.65;;;;;;;9.37;35.01;103292.25;6127172;23;20024;-80
2023/04/03 11:17:23;;;;;;;1.20;0.50;;;;;;;9.30;35.88;103286.88;6127670;23;20444;-78
2023/04/03 11:20:17;;;;;;;0.63;0.63;;;;;;;9.25;37.09;103284.56;6102524;23;20086;-78
2023/04/03 11:23:03;;;;;;;0.80;0.80;;;;;;;9.13;36.16;103290.94;6127414;23;20400;-78
2023/04/03 11:25:34;;;;;;;0.65;0.47;;;;;;;9.10;35.47;103290.91;6102245;23;21120;-78
2023/04/03 11:28:06;;;;;;;1.83;0.50;;;;;;;9.17;36.30;103294.41;6127011;23;20022;-78
2023/04/03 11:31:05;;;;;;;0.90;0.85;;;;;;;9.24;37.15;103291.00;6127323;23;20056;-77
2023/04/03 11:33:52;;;;;;;0.95;0.70;;;;;;;9.21;35.42;103289.84;6127862;23;20018;-78
2023/04/03 11:36:26;;;;;;;1.25;0.75;;;;;;;9.20;35.35;103290.22;6126192;23;20023;-77
2023/04/03 11:39:04;;;;;;;2.97;0.82;;;;;;;9.22;36.09;103286.06;6177281;23;20451;-77
2023/04/03 11:41:32;;;;;;;0.75;0.70;;;;;;;9.30;35.85;103282.34;6188783;23;20020;-80
2023/04/03 11:44:00;;;;;;;2.05;0.77;;;;;;;9.29;35.81;103278.16;6189706;23;20060;-78
2023/04/03 11:47:03;;;;;;;2.90;0.73;;;;;;;9.26;36.37;103273.56;6188783;23;20077;-77
2023/04/03 11:49:50;;;;;;;0.60;0.60;;;;;;;9.24;36.68;103275.81;6101735;23;20090;-78
2023/04/03 11:52:38;;;;;;;0.82;0.60;;;;;;;9.31;36.75;103261.84;6102147;23;20022;-77